TimeCDT,TemperatureF,Dew PointF,Humidity,Sea Level PressureIn,VisibilityMPH,Wind Direction,Wind SpeedMPH,Gust SpeedMPH,PrecipitationIn,Events,Conditions,WindDirDegrees,DateUTC
12:51 AM,68.0,62.1,81,30.01,10.0,SE,4.6,-,N/A,,Clear,140,2012-10-03 05:51:00
1:51 AM,66.9,62.1,84,30.01,10.0,SE,4.6,-,N/A,,Clear,140,2012-10-03 06:51:00
2:51 AM,66.9,61.0,81,30.00,10.0,SE,3.5,-,N/A,,Clear,130,2012-10-03 07:51:00
3:51 AM,66.9,61.0,81,30.00,10.0,ESE,4.6,-,N/A,,Clear,110,2012-10-03 08:51:00
4:51 AM,69.1,63.0,81,30.01,10.0,East,3.5,-,N/A,,Clear,100,2012-10-03 09:51:00
5:51 AM,70.0,64.0,81,30.03,10.0,East,4.6,-,N/A,,Clear,100,2012-10-03 10:51:00
6:51 AM,71.1,64.0,78,30.03,10.0,East,5.8,-,N/A,,Clear,100,2012-10-03 11:51:00
7:51 AM,73.0,64.9,76,30.04,10.0,East,6.9,-,N/A,,Clear,90,2012-10-03 12:51:00
8:51 AM,75.0,64.9,71,30.07,10.0,East,8.1,-,N/A,,Clear,90,2012-10-03 13:51:00
9:51 AM,78.1,64.9,64,30.09,10.0,East,9.2,-,N/A,,Clear,80,2012-10-03 14:51:00
10:06 AM,78.8,64.4,61,30.09,10.0,East,8.1,-,N/A,,Partly Cloudy,90,2012-10-03 15:06:00
10:51 AM,79.0,64.9,62,30.09,10.0,ESE,9.2,-,N/A,,Clear,110,2012-10-03 15:51:00
11:51 AM,80.1,64.9,60,30.09,10.0,ESE,8.1,-,N/A,,Partly Cloudy,110,2012-10-03 16:51:00
12:51 PM,80.1,64.9,60,30.08,10.0,East,10.4,-,N/A,,Scattered Clouds,90,2012-10-03 17:51:00
1:51 PM,80.1,64.0,58,30.06,10.0,East,11.5,-,N/A,,Partly Cloudy,100,2012-10-03 18:51:00
2:51 PM,81.0,64.0,56,30.05,10.0,East,8.1,-,N/A,,Partly Cloudy,90,2012-10-03 19:51:00
3:51 PM,80.1,64.0,58,30.06,10.0,ESE,8.1,-,N/A,,Mostly Cloudy,110,2012-10-03 20:51:00
4:51 PM,79.0,64.0,60,30.06,10.0,East,9.2,-,N/A,,Overcast,90,2012-10-03 21:51:00
5:51 PM,78.1,64.0,62,30.08,10.0,East,6.9,-,N/A,,Scattered Clouds,100,2012-10-03 22:51:00
6:51 PM,75.9,64.9,69,30.08,10.0,ESE,8.1,-,N/A,,Clear,110,2012-10-03 23:51:00
7:51 PM,75.9,64.9,69,30.09,10.0,East,6.9,-,N/A,,Clear,100,2012-10-04 00:51:00
8:51 PM,75.0,66.0,73,30.10,10.0,East,5.8,-,N/A,,Clear,100,2012-10-04 01:51:00
9:51 PM,75.0,66.9,76,30.11,10.0,ESE,5.8,-,N/A,,Clear,110,2012-10-04 02:51:00
10:51 PM,75.0,66.9,76,30.12,10.0,East,5.8,-,N/A,,Clear,100,2012-10-04 03:51:00
11:51 PM,75.0,68.0,79,30.12,10.0,East,3.5,-,N/A,,Clear,90,2012-10-04 04:51:00